createdAt,value
2019-03-22T00:00:16.014Z,61.53
2019-03-22T00:02:44.496Z,57.78
2019-03-22T00:05:13.139Z,62.58
2019-03-22T00:07:41.625Z,51.33
2019-03-22T00:10:10.261Z,55.92
2019-03-22T00:12:38.763Z,49.03
2019-03-22T00:15:08.103Z,48.60
2019-03-22T00:17:36.552Z,46.23
2019-03-22T00:20:08.727Z,43.48
2019-03-22T00:22:37.378Z,45.05
2019-03-22T00:25:06.773Z,48.80
2019-03-22T00:27:35.255Z,51.25
2019-03-22T00:30:13.045Z,49.53
2019-03-22T00:32:41.682Z,45.98
2019-03-22T00:35:10.532Z,47.78
2019-03-22T00:37:39.153Z,50.33
2019-03-22T00:40:09.005Z,50.50
2019-03-22T00:42:37.479Z,51.33
2019-03-22T00:45:08.099Z,54.75
2019-03-22T00:47:36.656Z,45.60
2019-03-22T00:50:07.274Z,45.58
2019-03-22T00:52:35.765Z,51.08
2019-03-22T00:55:06.448Z,47.03
2019-03-22T00:57:34.955Z,49.35
2019-03-22T01:00:05.125Z,51.18
2019-03-22T01:02:33.665Z,51.70
2019-03-22T01:05:02.271Z,51.63
2019-03-22T01:07:31.004Z,53.52
2019-03-22T01:09:59.493Z,51.70
2019-03-22T01:12:27.982Z,55.60
2019-03-22T01:14:56.470Z,53.42
2019-03-22T01:17:24.966Z,48.85
2019-03-22T01:19:53.523Z,55.48
2019-03-22T01:22:22.067Z,62.23
2019-03-22T01:24:50.552Z,59.70
2019-03-22T01:27:19.036Z,64.87
2019-03-22T01:29:47.511Z,68.15
2019-03-22T01:32:15.996Z,72.90
2019-03-22T01:34:44.523Z,73.67
2019-03-22T01:37:13.153Z,71.85
2019-03-22T01:39:41.613Z,74.90
2019-03-22T01:42:10.127Z,72.47
2019-03-22T01:44:41.502Z,78.20
2019-03-22T01:47:09.889Z,75.75
2019-03-22T01:49:38.390Z,73.78
2019-03-22T01:52:06.945Z,72.25
2019-03-22T01:54:35.488Z,71.95
2019-03-22T01:57:04.044Z,69.55
2019-03-22T01:59:33.199Z,68.92
2019-03-22T02:02:01.660Z,76.72
2019-03-22T02:04:30.167Z,77.97
2019-03-22T02:06:58.647Z,68.07
2019-03-22T02:09:27.389Z,63.80
2019-03-22T02:11:55.867Z,65.83
2019-03-22T02:14:24.423Z,72.03
2019-03-22T02:16:52.916Z,67.65
2019-03-22T02:19:21.372Z,71.82
2019-03-22T02:21:49.870Z,65.52
2019-03-22T02:24:18.359Z,64.58
2019-03-22T02:26:46.840Z,67.30
2019-03-22T02:29:15.416Z,68.52
2019-03-22T02:31:43.877Z,72.70
2019-03-22T02:34:12.372Z,71.90
2019-03-22T02:36:40.837Z,69.97
2019-03-22T02:39:09.320Z,74.60
2019-03-22T02:41:37.843Z,68.12
2019-03-22T02:44:06.364Z,72.47
2019-03-22T02:46:34.836Z,74.10
2019-03-22T02:49:03.313Z,73.10
2019-03-22T02:51:31.886Z,75.78
2019-03-22T02:54:00.351Z,74.07
2019-03-22T02:56:28.865Z,74.30
2019-03-22T02:58:59.402Z,80.25
2019-03-22T03:01:27.776Z,79.37
2019-03-22T03:03:56.328Z,71.33
2019-03-22T03:06:24.812Z,74.87
2019-03-22T03:08:53.288Z,76.15
2019-03-22T03:11:21.758Z,75.10
2019-03-22T03:13:50.243Z,74.37
2019-03-22T03:16:18.781Z,74.05
2019-03-22T03:18:47.253Z,74.20
2019-03-22T03:21:15.705Z,74.37
2019-03-22T03:23:44.215Z,74.95
2019-03-22T03:26:12.690Z,77.45
2019-03-22T03:28:41.150Z,81.05
2019-03-22T03:31:09.781Z,78.47
2019-03-22T03:33:38.228Z,77.00
2019-03-22T03:36:06.756Z,83.12
2019-03-22T03:38:35.217Z,75.67
2019-03-22T03:41:03.843Z,78.00
2019-03-22T03:43:32.372Z,80.72
2019-03-22T03:46:00.924Z,77.72
2019-03-22T03:48:29.394Z,71.60
2019-03-22T03:50:57.874Z,80.57
2019-03-22T03:53:26.582Z,78.85
2019-03-22T03:55:55.072Z,83.10
2019-03-22T03:58:23.696Z,83.75
2019-03-22T04:00:52.151Z,79.75
2019-03-22T04:03:20.720Z,79.25
2019-03-22T04:05:49.271Z,79.80
2019-03-22T04:08:17.751Z,78.62
2019-03-22T04:10:46.287Z,74.40
2019-03-22T04:13:14.764Z,87.40
2019-03-22T04:15:43.308Z,84.05
2019-03-22T04:18:11.825Z,86.20
2019-03-22T04:20:40.308Z,96.72
2019-03-22T04:23:08.762Z,94.13
2019-03-22T04:25:37.328Z,90.32
2019-03-22T04:28:05.783Z,88.47
2019-03-22T04:30:34.264Z,86.37
2019-03-22T04:33:06.253Z,84.58
2019-03-22T04:35:32.936Z,79.85
2019-03-22T04:38:01.482Z,77.78
2019-03-22T04:40:30.302Z,85.90
2019-03-22T04:42:59.021Z,82.53
2019-03-22T04:45:30.010Z,89.95
2019-03-22T04:48:04.334Z,78.50
2019-03-22T04:50:34.793Z,78.45
2019-03-22T04:53:04.398Z,84.25
2019-03-22T04:55:34.534Z,80.75
2019-03-22T04:58:04.104Z,83.00
2019-03-22T05:00:33.522Z,78.95
2019-03-22T05:03:03.225Z,81.37
2019-03-22T05:05:31.777Z,85.15
2019-03-22T05:08:00.663Z,81.47
2019-03-22T05:10:30.112Z,83.82
2019-03-22T05:13:01.319Z,84.90
2019-03-22T05:15:32.184Z,82.72
2019-03-22T05:18:02.698Z,75.83
2019-03-22T05:20:33.048Z,83.62
2019-03-22T05:23:03.065Z,82.95
2019-03-22T05:25:32.666Z,84.65
2019-03-22T05:28:03.480Z,92.20
2019-03-22T05:30:51.338Z,85.95
2019-03-22T05:33:19.822Z,80.00
2019-03-22T05:35:48.276Z,113.97
2019-03-22T05:38:16.736Z,89.50
2019-03-22T05:40:45.222Z,90.15
2019-03-22T05:43:13.672Z,91.42
2019-03-22T05:45:42.160Z,91.22
2019-03-22T05:48:10.627Z,83.07
2019-03-22T05:50:39.112Z,84.77
2019-03-22T05:53:07.610Z,87.90
2019-03-22T05:55:36.075Z,80.67
2019-03-22T05:58:04.566Z,86.80
2019-03-22T06:00:33.036Z,79.87
2019-03-22T06:03:01.529Z,83.97
2019-03-22T06:05:30.071Z,88.12
2019-03-22T06:07:58.588Z,86.42
2019-03-22T06:10:27.101Z,93.15
2019-03-22T06:12:55.603Z,88.82
2019-03-22T06:15:24.127Z,86.35
2019-03-22T06:17:52.615Z,81.60
2019-03-22T06:20:21.145Z,89.15
2019-03-22T06:22:49.672Z,81.08
2019-03-22T06:25:18.301Z,77.37
2019-03-22T06:27:46.743Z,91.02
2019-03-22T06:30:15.347Z,74.32
2019-03-22T06:32:43.877Z,88.80
2019-03-22T06:35:12.575Z,83.95
2019-03-22T06:37:41.282Z,84.87
2019-03-22T06:40:09.910Z,93.17
2019-03-22T06:42:38.383Z,88.35
2019-03-22T06:45:07.309Z,92.10
2019-03-22T06:47:35.797Z,94.95
2019-03-22T06:50:08.802Z,84.75
2019-03-22T06:52:37.385Z,105.87
2019-03-22T06:55:09.321Z,96.53
2019-03-22T06:57:39.107Z,92.25
2019-03-22T07:00:10.707Z,90.77
2019-03-22T07:02:39.175Z,96.87
2019-03-22T07:05:07.999Z,90.10
2019-03-22T07:07:36.465Z,86.22
2019-03-22T07:10:08.977Z,90.83
2019-03-22T07:12:44.551Z,101.02
2019-03-22T07:15:13.314Z,97.80
2019-03-22T07:17:44.598Z,91.57
2019-03-22T07:20:13.458Z,98.10
2019-03-22T07:22:41.918Z,96.85
2019-03-22T07:25:16.257Z,97.27
2019-03-22T07:27:45.193Z,103.60
2019-03-22T07:30:19.072Z,91.22
2019-03-22T07:32:46.799Z,88.42
2019-03-22T07:35:15.501Z,88.40
2019-03-22T07:37:45.505Z,87.47
2019-03-22T07:40:14.111Z,83.35
2019-03-22T07:42:42.625Z,83.22
2019-03-22T07:45:12.156Z,81.32
2019-03-22T07:47:40.634Z,81.85
2019-03-22T07:50:11.181Z,81.02
2019-03-22T07:52:39.635Z,82.78
2019-03-22T07:55:08.961Z,83.35
2019-03-22T07:57:37.438Z,80.83
2019-03-22T08:00:10.902Z,80.83
2019-03-22T08:02:44.750Z,87.05
2019-03-22T08:05:13.539Z,81.97
2019-03-22T08:07:42.075Z,85.65
2019-03-22T08:10:10.933Z,81.55
2019-03-22T08:12:41.412Z,94.87
2019-03-22T08:15:14.278Z,88.47
2019-03-22T08:17:42.854Z,93.72
2019-03-22T08:20:11.560Z,86.57
2019-03-22T08:22:40.210Z,89.67
2019-03-22T08:25:10.271Z,83.92
2019-03-22T08:27:38.802Z,83.15
2019-03-22T08:30:09.433Z,80.03
2019-03-22T08:32:39.645Z,83.30
2019-03-22T08:35:13.367Z,83.10
2019-03-22T08:37:52.022Z,87.02
2019-03-22T08:40:12.201Z,82.67
2019-03-22T08:42:42.728Z,70.47
2019-03-22T08:45:11.591Z,79.20
2019-03-22T08:47:40.160Z,74.05
2019-03-22T08:50:08.828Z,82.25
2019-03-22T08:52:37.396Z,82.75
2019-03-22T08:55:06.243Z,80.92
2019-03-22T08:57:34.712Z,75.45
2019-03-22T09:00:04.761Z,80.07
2019-03-22T09:02:34.621Z,80.05
2019-03-22T09:05:03.359Z,70.05
2019-03-22T09:07:31.772Z,73.47
2019-03-22T09:10:00.339Z,73.97
2019-03-22T09:12:28.756Z,64.32
2019-03-22T09:14:57.236Z,64.65
2019-03-22T09:17:25.714Z,63.00
2019-03-22T09:19:54.166Z,66.22
2019-03-22T09:22:22.658Z,66.07
2019-03-22T09:24:51.133Z,61.92
2019-03-22T09:27:21.161Z,62.40
2019-03-22T09:29:50.066Z,67.12
2019-03-22T09:32:18.516Z,65.40
2019-03-22T09:34:47.056Z,62.05
2019-03-22T09:37:15.540Z,67.45
2019-03-22T09:39:43.992Z,62.35
2019-03-22T09:42:12.538Z,65.28
2019-03-22T09:44:44.817Z,68.75
2019-03-22T09:47:16.453Z,68.60
2019-03-22T09:49:44.458Z,65.03
2019-03-22T09:52:14.562Z,65.05
2019-03-22T09:54:43.903Z,60.58
2019-03-22T09:57:12.370Z,68.67
2019-03-22T09:59:40.989Z,66.40
2019-03-22T10:02:09.469Z,62.75
2019-03-22T10:04:37.952Z,68.65
2019-03-22T10:07:09.093Z,62.13
2019-03-22T10:09:39.214Z,71.37
2019-03-22T10:12:07.821Z,64.40
2019-03-22T10:14:36.283Z,67.82
2019-03-22T10:17:06.289Z,59.33
2019-03-22T10:19:34.748Z,61.92
2019-03-22T10:22:03.439Z,70.92
2019-03-22T10:24:31.918Z,67.62
2019-03-22T10:27:00.473Z,62.50
2019-03-22T10:29:31.214Z,68.07
2019-03-22T10:31:59.721Z,69.80
2019-03-22T10:34:28.241Z,69.00
2019-03-22T10:36:56.727Z,67.42
2019-03-22T10:39:25.230Z,67.25
2019-03-22T10:41:53.711Z,70.52
2019-03-22T10:44:22.319Z,66.92
2019-03-22T10:46:50.886Z,69.60
2019-03-22T10:49:19.324Z,69.10
2019-03-22T10:51:56.629Z,71.17
2019-03-22T10:54:18.129Z,77.35
2019-03-22T10:56:46.697Z,66.25
2019-03-22T10:59:15.241Z,75.25
2019-03-22T11:01:52.271Z,69.50
2019-03-22T11:04:14.010Z,64.00
2019-03-22T11:06:42.503Z,73.07
2019-03-22T11:09:11.035Z,66.87
2019-03-22T11:11:39.580Z,71.25
2019-03-22T11:14:08.129Z,65.85
2019-03-22T11:16:36.605Z,71.72
2019-03-22T11:19:05.161Z,73.83
2019-03-22T11:21:33.652Z,68.15
2019-03-22T11:24:02.127Z,68.57
2019-03-22T11:26:35.161Z,67.47
2019-03-22T11:29:05.169Z,71.87
2019-03-22T11:31:39.781Z,69.47
2019-03-22T11:34:06.149Z,64.97
2019-03-22T11:36:34.631Z,66.87
2019-03-22T11:39:04.399Z,65.40
2019-03-22T11:41:32.889Z,66.02
2019-03-22T11:44:01.411Z,67.22
2019-03-22T11:46:31.108Z,70.25
2019-03-22T11:48:59.716Z,62.48
2019-03-22T11:51:28.433Z,67.08
2019-03-22T11:53:56.912Z,72.53
2019-03-22T11:56:26.874Z,67.75
2019-03-22T11:58:55.366Z,68.00
2019-03-22T12:01:23.849Z,68.37
2019-03-22T12:03:52.338Z,68.02
2019-03-22T12:06:24.070Z,64.35
2019-03-22T12:08:52.575Z,66.10
2019-03-22T12:11:22.707Z,69.97
2019-03-22T12:13:53.647Z,71.35
2019-03-22T12:16:22.189Z,69.85
2019-03-22T12:18:50.697Z,72.05
2019-03-22T12:21:19.450Z,67.03
2019-03-22T12:23:47.961Z,66.35
2019-03-22T12:26:16.442Z,67.78
2019-03-22T12:28:44.943Z,69.70
2019-03-22T12:31:14.941Z,72.55
2019-03-22T12:33:45.825Z,72.32
2019-03-22T12:36:14.303Z,71.05
2019-03-22T12:38:42.788Z,70.17
2019-03-22T12:41:14.369Z,70.75
2019-03-22T12:43:42.896Z,75.90
2019-03-22T12:46:11.374Z,72.15
2019-03-22T12:48:39.861Z,75.67
2019-03-22T12:51:08.358Z,75.62
2019-03-22T12:53:36.864Z,68.52
2019-03-22T12:56:05.458Z,67.70
2019-03-22T12:58:33.950Z,64.37
2019-03-22T13:01:06.333Z,66.28
2019-03-22T13:03:34.828Z,69.15
2019-03-22T13:06:03.372Z,69.22
2019-03-22T13:08:33.803Z,68.67
2019-03-22T13:11:02.153Z,64.05
2019-03-22T13:13:35.542Z,67.97
2019-03-22T13:16:04.009Z,71.25
2019-03-22T13:18:33.252Z,72.58
2019-03-22T13:21:01.765Z,67.90
2019-03-22T13:23:32.658Z,65.57
2019-03-22T13:26:02.773Z,62.40
2019-03-22T13:28:31.773Z,69.65
2019-03-22T13:31:00.254Z,69.05
2019-03-22T13:33:28.785Z,67.47
2019-03-22T13:35:57.243Z,64.15
2019-03-22T13:38:25.720Z,66.00
2019-03-22T13:40:59.809Z,67.97
2019-03-22T13:43:28.310Z,66.33
2019-03-22T13:45:56.791Z,64.27
2019-03-22T13:48:28.184Z,67.15
2019-03-22T13:50:56.765Z,65.42
2019-03-22T13:53:26.110Z,67.42
2019-03-22T13:55:54.592Z,65.03
2019-03-22T13:58:23.066Z,62.78
2019-03-22T14:00:51.568Z,68.87
2019-03-22T14:03:20.059Z,64.03
2019-03-22T14:05:48.542Z,71.90
2019-03-22T14:08:17.032Z,66.40
2019-03-22T14:10:45.512Z,69.22
2019-03-22T14:13:17.082Z,63.15
2019-03-22T14:15:45.611Z,66.87
2019-03-22T14:18:14.092Z,65.92
2019-03-22T14:20:42.679Z,64.87
2019-03-22T14:23:12.776Z,65.17
2019-03-22T14:25:41.280Z,66.35
2019-03-22T14:28:11.270Z,71.20
2019-03-22T14:30:39.845Z,66.62
2019-03-22T14:33:13.355Z,69.20
2019-03-22T14:35:38.588Z,69.67
2019-03-22T14:38:07.050Z,68.78
2019-03-22T14:40:35.520Z,70.52
2019-03-22T14:43:04.311Z,70.42
2019-03-22T14:45:33.530Z,70.12
2019-03-22T14:48:04.826Z,68.90
2019-03-22T14:50:33.437Z,72.85
2019-03-22T14:53:01.929Z,72.82
2019-03-22T14:55:39.755Z,76.70
2019-03-22T14:58:08.238Z,74.55
2019-03-22T15:00:36.799Z,73.00
2019-03-22T15:03:07.212Z,76.00
2019-03-22T15:05:36.000Z,72.58
2019-03-22T15:08:04.480Z,77.72
2019-03-22T15:10:33.093Z,76.20
2019-03-22T15:13:02.150Z,80.42
2019-03-22T15:15:32.344Z,74.50
2019-03-22T15:18:05.460Z,69.95
2019-03-22T15:20:51.495Z,74.47
2019-03-22T15:23:21.643Z,77.17
2019-03-22T15:26:00.291Z,76.82
2019-03-22T15:28:36.397Z,79.15
2019-03-22T15:31:16.767Z,74.22
2019-03-22T15:33:47.017Z,72.53
2019-03-22T15:36:17.206Z,71.07
2019-03-22T15:39:03.461Z,80.87
2019-03-22T15:41:32.229Z,83.20
2019-03-22T15:44:03.891Z,80.17
2019-03-22T15:46:32.430Z,83.27
2019-03-22T15:49:04.607Z,81.08
2019-03-22T15:51:33.073Z,83.78
2019-03-22T15:54:14.626Z,83.30
2019-03-22T15:56:44.755Z,83.33
2019-03-22T15:59:13.237Z,81.08
2019-03-22T16:01:41.795Z,84.92
2019-03-22T16:04:10.372Z,80.03
2019-03-22T16:06:39.031Z,84.80
2019-03-22T16:09:08.360Z,80.60
2019-03-22T16:11:36.871Z,82.17
2019-03-22T16:14:05.863Z,81.78
2019-03-22T16:16:34.373Z,82.88
2019-03-22T16:19:02.867Z,84.32
2019-03-22T16:21:31.531Z,88.47
2019-03-22T16:24:00.092Z,84.05
2019-03-22T16:26:28.871Z,83.90
2019-03-22T16:28:57.345Z,81.95
2019-03-22T16:31:26.066Z,77.72
2019-03-22T16:33:56.503Z,80.72
2019-03-22T16:36:25.033Z,81.22
2019-03-22T16:38:53.546Z,80.83
2019-03-22T16:41:23.524Z,80.87
2019-03-22T16:43:57.802Z,80.35
2019-03-22T16:46:33.992Z,84.55
2019-03-22T16:49:02.561Z,80.42
2019-03-22T16:51:31.036Z,80.57
2019-03-22T16:53:59.576Z,79.87
2019-03-22T16:56:28.061Z,78.92
2019-03-22T16:58:56.557Z,79.07
2019-03-22T17:01:28.577Z,80.40
2019-03-22T17:04:04.101Z,82.35
2019-03-22T17:06:27.437Z,81.30
2019-03-22T17:08:57.660Z,81.47
2019-03-22T17:11:28.538Z,78.90
2019-03-22T17:13:57.018Z,84.92
2019-03-22T17:16:25.557Z,81.05
2019-03-22T17:18:54.311Z,78.78
2019-03-22T17:21:22.770Z,86.53
2019-03-22T17:23:51.261Z,86.63
2019-03-22T17:26:19.741Z,85.55
2019-03-22T17:28:48.229Z,83.65
2019-03-22T17:31:16.703Z,92.72
2019-03-22T17:33:45.388Z,83.82
2019-03-22T17:36:13.947Z,93.33
2019-03-22T17:38:42.490Z,92.00
2019-03-22T17:41:10.971Z,90.75
2019-03-22T17:43:39.445Z,98.05
2019-03-22T17:46:08.031Z,95.22
2019-03-22T17:48:38.290Z,96.22
2019-03-22T17:51:06.782Z,96.45
2019-03-22T17:53:35.534Z,96.53
2019-03-22T17:56:05.527Z,98.03
2019-03-22T17:58:37.034Z,100.15
2019-03-22T18:01:07.435Z,90.42
2019-03-22T18:03:35.906Z,91.42
2019-03-22T18:06:04.779Z,90.07
2019-03-22T18:08:40.696Z,89.50
2019-03-22T18:11:09.194Z,97.33
2019-03-22T18:13:37.683Z,93.45
2019-03-22T18:16:06.244Z,88.78
2019-03-22T18:18:34.762Z,94.75
2019-03-22T18:21:03.326Z,97.33
2019-03-22T18:23:35.956Z,101.95
2019-03-22T18:26:02.627Z,91.55
2019-03-22T18:28:31.806Z,96.05
2019-03-22T18:31:00.262Z,94.47
2019-03-22T18:33:28.747Z,104.40
2019-03-22T18:35:57.224Z,112.97
2019-03-22T18:38:25.718Z,106.72
2019-03-22T18:40:54.252Z,108.45
2019-03-22T18:43:24.519Z,108.60
2019-03-22T18:45:52.996Z,114.52
2019-03-22T18:48:24.540Z,107.20
2019-03-22T18:50:56.951Z,117.75
2019-03-22T18:53:23.226Z,113.97
2019-03-22T18:55:51.699Z,115.90
2019-03-22T18:58:20.188Z,111.75
2019-03-22T19:00:50.208Z,120.25
2019-03-22T19:03:18.688Z,113.15
2019-03-22T19:05:47.165Z,118.53
2019-03-22T19:08:15.669Z,123.55
2019-03-22T19:10:44.145Z,124.22
2019-03-22T19:13:12.643Z,121.45
2019-03-22T19:15:41.180Z,121.65
2019-03-22T19:18:09.667Z,123.62
2019-03-22T19:20:38.174Z,121.17
2019-03-22T19:23:06.674Z,124.90
2019-03-22T19:25:35.197Z,128.38
2019-03-22T19:28:06.684Z,125.62
2019-03-22T19:30:35.238Z,127.78
2019-03-22T19:33:03.727Z,121.90
2019-03-22T19:35:32.304Z,125.15
2019-03-22T19:38:00.821Z,122.60
2019-03-22T19:40:29.388Z,120.57
2019-03-22T19:42:57.858Z,124.58
2019-03-22T19:45:26.438Z,127.30
2019-03-22T19:47:54.933Z,128.82
2019-03-22T19:50:25.423Z,121.28
2019-03-22T19:52:55.753Z,123.90
2019-03-22T19:55:25.824Z,128.23
2019-03-22T19:57:54.341Z,131.45
2019-03-22T20:00:23.010Z,131.57
2019-03-22T20:02:51.516Z,132.80
2019-03-22T20:05:33.532Z,140.32
2019-03-22T20:08:02.452Z,134.03
2019-03-22T20:10:35.631Z,130.40
2019-03-22T20:13:04.277Z,142.00
2019-03-22T20:15:34.770Z,132.97
2019-03-22T20:18:03.408Z,139.20
2019-03-22T20:20:31.956Z,136.80
2019-03-22T20:23:02.693Z,127.53
2019-03-22T20:25:31.189Z,134.35
2019-03-22T20:27:59.745Z,136.95
2019-03-22T20:30:32.596Z,135.95
2019-03-22T20:33:04.144Z,130.93
2019-03-22T20:35:33.887Z,134.43
2019-03-22T20:38:05.171Z,141.12
2019-03-22T20:40:34.099Z,144.68
2019-03-22T20:43:02.537Z,132.12
2019-03-22T20:45:37.070Z,141.15
2019-03-22T20:48:05.652Z,144.25
2019-03-22T20:50:36.000Z,128.78
2019-03-22T20:53:04.326Z,135.70
2019-03-22T20:55:35.658Z,136.28
2019-03-22T20:58:05.510Z,142.00
2019-03-22T21:00:34.087Z,129.00
2019-03-22T21:03:04.062Z,119.25
2019-03-22T21:05:32.573Z,136.05
2019-03-22T21:08:01.095Z,129.45
2019-03-22T21:10:29.595Z,128.23
2019-03-22T21:12:58.076Z,125.15
2019-03-22T21:15:26.629Z,119.13
2019-03-22T21:17:55.109Z,116.70
2019-03-22T21:20:23.759Z,124.12
2019-03-22T21:22:53.922Z,115.85
2019-03-22T21:25:22.486Z,120.20
2019-03-22T21:27:50.967Z,113.60
2019-03-22T21:30:22.543Z,115.52
2019-03-22T21:32:51.219Z,120.80
2019-03-22T21:35:22.918Z,108.95
2019-03-22T21:37:50.029Z,117.55
2019-03-22T21:40:18.793Z,117.55
2019-03-22T21:42:47.407Z,104.40
2019-03-22T21:45:16.089Z,106.55
2019-03-22T21:47:44.708Z,118.65
2019-03-22T21:50:15.825Z,108.63
2019-03-22T21:52:44.309Z,107.15
2019-03-22T21:55:12.995Z,107.65
2019-03-22T21:57:41.496Z,105.47
2019-03-22T22:00:12.097Z,103.27
2019-03-22T22:02:40.612Z,109.83
2019-03-22T22:05:09.387Z,119.37
2019-03-22T22:07:37.874Z,126.27
2019-03-22T22:10:07.774Z,111.65
2019-03-22T22:12:36.336Z,114.15
2019-03-22T22:15:08.645Z,118.70
2019-03-22T22:17:39.238Z,126.75
2019-03-22T22:20:07.983Z,132.50
2019-03-22T22:22:36.491Z,131.22
2019-03-22T22:25:06.985Z,116.45
2019-03-22T22:27:35.735Z,122.92
2019-03-22T22:30:06.783Z,111.65
2019-03-22T22:32:35.359Z,120.97
2019-03-22T22:35:06.123Z,130.32
2019-03-22T22:37:34.591Z,127.30
2019-03-22T22:40:04.589Z,118.10
2019-03-22T22:42:33.081Z,116.37
2019-03-22T22:45:01.628Z,113.20
2019-03-22T22:47:30.200Z,119.67
2019-03-22T22:49:58.738Z,120.05
2019-03-22T22:52:27.254Z,102.07
2019-03-22T22:54:55.737Z,113.60
2019-03-22T22:57:24.247Z,100.12
2019-03-22T22:59:52.701Z,117.45
2019-03-22T23:02:23.722Z,113.00
2019-03-22T23:04:52.258Z,105.00
2019-03-22T23:07:20.731Z,100.85
2019-03-22T23:09:49.234Z,110.68
2019-03-22T23:12:17.726Z,107.90
2019-03-22T23:14:46.261Z,121.95
2019-03-22T23:17:14.749Z,113.45
2019-03-22T23:19:43.313Z,111.05
2019-03-22T23:22:11.934Z,101.67
2019-03-22T23:24:42.609Z,112.77
2019-03-22T23:27:10.709Z,115.85
2019-03-22T23:29:39.318Z,118.02
2019-03-22T23:32:07.834Z,114.67
2019-03-22T23:34:36.364Z,106.55
2019-03-22T23:37:07.074Z,106.80
2019-03-22T23:39:35.212Z,105.75
2019-03-22T23:42:03.772Z,109.22
2019-03-22T23:44:32.262Z,105.35
2019-03-22T23:47:00.767Z,103.97
2019-03-22T23:49:29.266Z,100.35
2019-03-22T23:51:57.935Z,98.67
2019-03-22T23:54:34.633Z,101.55
2019-03-22T23:57:03.274Z,112.35
2019-03-22T23:59:31.776Z,96.70
